Time;durP1;ratioP1;P1;durP2;ratioP2;P2;SDS_P1;SDS_P2;PMS_P1;PMS_P2;Temp;Humidity;BMP_temperature;BMP_pressure;BME280_temperature;BME280_humidity;BME280_pressure;Samples;Min_cycle;Max_cycle;Signal;HPM_P1;HPM_P2
2021/12/25 00:01:16;;;;;;;16.10;10.50;;;;;;;0.97;100.00;97736.30;102304;1316;61394;-77
2021/12/25 00:03:43;;;;;;;13.60;9.40;;;;;;;0.96;100.00;97733.36;102421;1317;61372;-76
2021/12/25 00:06:09;;;;;;;18.90;11.50;;;;;;;0.94;100.00;97727.70;101972;1316;76607;-76
2021/12/25 00:08:36;;;;;;;33.00;16.90;;;;;;;0.92;100.00;97729.16;102275;1316;68802;-77
2021/12/25 00:11:08;;;;;;;21.50;13.10;;;;;;;0.91;100.00;97742.15;102255;1316;73260;-76
2021/12/25 00:13:35;;;;;;;31.30;16.80;;;;;;;0.88;100.00;97750.88;102528;1310;61665;-77
2021/12/25 00:16:02;;;;;;;41.20;20.40;;;;;;;0.84;100.00;97748.77;101897;1316;61430;-76
2021/12/25 00:18:29;;;;;;;27.10;14.40;;;;;;;0.82;100.00;97752.40;102333;1317;75892;-76
2021/12/25 00:20:56;;;;;;;14.70;8.70;;;;;;;0.80;100.00;97764.02;102349;1316;69644;-76
2021/12/25 00:23:23;;;;;;;18.70;9.50;;;;;;;0.78;100.00;97765.85;102222;1316;74192;-77
2021/12/25 00:25:57;;;;;;;21.50;11.70;;;;;;;0.76;100.00;97775.21;102284;1310;61326;-75
2021/12/25 00:31:22;;;;;;;28.50;13.70;;;;;;;0.69;100.00;97778.19;102278;1316;75580;-76
2021/12/25 00:33:56;;;;;;;12.00;8.50;;;;;;;0.68;100.00;97785.92;102244;1316;68918;-76
2021/12/25 00:36:24;;;;;;;23.70;14.30;;;;;;;0.66;100.00;97779.71;101948;1316;72794;-77
2021/12/25 00:38:53;;;;;;;22.00;15.40;;;;;;;0.68;100.00;97779.64;102327;1311;61393;-75
2021/12/25 00:41:22;;;;;;;15.90;10.70;;;;;;;0.69;100.00;97783.77;102385;1313;61182;-74
2021/12/25 00:46:28;;;;;;;31.50;19.30;;;;;;;0.71;100.00;97801.14;99030;1352;600691;-76
2021/12/25 00:48:55;;;;;;;18.70;12.30;;;;;;;0.70;100.00;97809.98;101222;1332;61510;-77
2021/12/25 00:51:22;;;;;;;12.60;10.20;;;;;;;0.69;100.00;97819.10;101199;1326;60964;-76
2021/12/25 00:53:49;;;;;;;11.70;8.50;;;;;;;0.68;100.00;97813.70;101245;1326;72866;-77
2021/12/25 00:56:15;;;;;;;18.90;13.80;;;;;;;0.67;100.00;97819.33;101253;1329;69250;-79
2021/12/25 00:58:42;;;;;;;15.20;10.00;;;;;;;0.64;100.00;97825.23;101210;1326;74426;-77
2021/12/25 01:01:09;;;;;;;12.00;9.30;;;;;;;0.61;100.00;97834.29;101169;1327;189182;-78
2021/12/25 01:03:36;;;;;;;11.70;8.50;;;;;;;0.59;100.00;97831.77;101405;1329;61283;-77
2021/12/25 01:06:03;;;;;;;9.40;8.00;;;;;;;0.59;100.00;97841.52;101363;1329;74202;-77
2021/12/25 01:08:29;;;;;;;11.30;7.40;;;;;;;0.60;100.00;97843.27;101290;1323;70121;-77
2021/12/25 01:10:56;;;;;;;14.50;10.40;;;;;;;0.60;100.00;97841.01;101295;1323;73356;-76
2021/12/25 01:13:27;;;;;;;22.70;16.80;;;;;;;0.57;100.00;97838.50;100958;1330;60521;-77
2021/12/25 01:24:35;;;;;;;23.40;17.30;;;;;;;0.53;100.00;97860.36;101458;1323;74500;-76
2021/12/25 01:30:04;;;;;;;29.50;23.50;;;;;;;0.52;100.00;97853.95;101016;1323;62220;-76
2021/12/25 01:38:02;;;;;;;28.70;20.70;;;;;;;0.54;100.00;97862.41;101288;1323;73398;-76
2021/12/25 01:48:40;;;;;;;31.80;23.20;;;;;;;0.53;100.00;97854.75;101697;1327;69290;-76
2021/12/25 01:51:07;;;;;;;25.40;19.80;;;;;;;0.55;100.00;97856.23;101398;1323;73269;-75
2021/12/25 01:53:34;;;;;;;28.00;22.30;;;;;;;0.55;100.00;97861.13;101280;1323;59781;-74
2021/12/25 01:56:03;;;;;;;26.90;18.80;;;;;;;0.55;100.00;97874.21;101317;1329;61385;-74
2021/12/25 01:58:30;;;;;;;26.30;18.50;;;;;;;0.54;100.00;97882.32;101348;1324;73872;-75
2021/12/25 02:00:58;;;;;;;27.70;19.30;;;;;;;0.54;100.00;97875.51;101275;1323;68548;-75
2021/12/25 02:03:29;;;;;;;25.60;18.20;;;;;;;0.52;100.00;97879.29;101291;1327;73312;-75
2021/12/25 02:06:00;;;;;;;22.50;17.20;;;;;;;0.51;100.00;97885.08;101395;1323;59851;-75
2021/12/25 02:08:27;;;;;;;25.90;17.90;;;;;;;0.50;100.00;97887.94;101280;1329;60362;-75
2021/12/25 02:10:55;;;;;;;23.80;19.50;;;;;;;0.50;100.00;97884.95;101320;1326;73916;-76
2021/12/25 02:13:22;;;;;;;26.90;19.20;;;;;;;0.50;100.00;97890.89;101280;1323;68422;-76
2021/12/25 02:15:52;;;;;;;27.50;16.80;;;;;;;0.51;100.00;97897.52;101386;1323;73720;-77
2021/12/25 02:18:27;;;;;;;22.00;16.10;;;;;;;0.50;100.00;97895.61;101307;1323;59753;-76
2021/12/25 02:23:23;;;;;;;25.50;17.50;;;;;;;0.50;100.00;97891.25;101608;1319;74991;-76
2021/12/25 02:25:54;;;;;;;28.40;18.90;;;;;;;0.50;100.00;97899.98;101484;1326;71051;-76
2021/12/25 02:28:23;;;;;;;23.70;17.30;;;;;;;0.50;100.00;97898.41;101533;1320;72579;-77
2021/12/25 02:30:53;;;;;;;26.60;18.20;;;;;;;0.51;100.00;97897.64;101305;1326;60020;-77
2021/12/25 02:33:19;;;;;;;25.50;16.70;;;;;;;0.51;100.00;97904.50;101665;1320;60389;-77
2021/12/25 02:35:47;;;;;;;26.60;17.60;;;;;;;0.51;100.00;97915.50;101552;1323;74991;-75
2021/12/25 02:38:14;;;;;;;21.80;17.00;;;;;;;0.50;100.00;97918.52;101632;1319;68688;-76
2021/12/25 02:40:41;;;;;;;25.50;18.40;;;;;;;0.48;100.00;97921.06;101554;1320;74093;-77
2021/12/25 02:43:07;;;;;;;27.80;18.50;;;;;;;0.46;100.00;97931.61;101523;1320;59825;-77
2021/12/25 02:45:35;;;;;;;24.90;19.50;;;;;;;0.45;100.00;97927.64;101574;1319;60307;-77
2021/12/25 02:48:10;;;;;;;22.60;18.60;;;;;;;0.45;100.00;97935.50;101564;1323;74913;-77
2021/12/25 02:50:39;;;;;;;23.50;17.40;;;;;;;0.44;100.00;97944.23;101739;1319;69291;-78
2021/12/25 02:53:07;;;;;;;25.50;18.30;;;;;;;0.42;100.00;97955.16;101705;1320;72756;-78
2021/12/25 02:55:36;;;;;;;26.20;19.50;;;;;;;0.41;100.00;97952.62;101712;1325;59801;-78
2021/12/25 02:58:04;;;;;;;30.70;23.50;;;;;;;0.40;100.00;97948.79;101536;1325;59899;-76
2021/12/25 03:00:50;;;;;;;23.60;19.30;;;;;;;0.41;100.00;97953.81;101697;1323;73873;-76
2021/12/25 03:03:18;;;;;;;32.20;21.50;;;;;;;0.42;100.00;97960.24;102308;1310;69598;-76
2021/12/25 03:05:45;;;;;;;48.50;32.90;;;;;;;0.40;100.00;97957.36;102304;1310;73762;-75
2021/12/25 03:08:13;;;;;;;78.50;35.70;;;;;;;0.37;100.00;97952.59;102278;1313;59809;-77
2021/12/25 03:10:40;;;;;;;76.80;29.70;;;;;;;0.37;100.00;97962.39;102337;1313;61358;-76
2021/12/25 03:15:49;;;;;;;125.90;39.20;;;;;;;0.33;100.00;97967.98;102286;1311;70544;-78
2021/12/25 03:18:27;;;;;;;72.40;28.40;;;;;;;0.32;100.00;97961.73;102274;1313;73135;-76
2021/12/25 03:20:58;;;;;;;98.20;35.00;;;;;;;0.29;100.00;97967.96;102320;1313;59806;-76
2021/12/25 03:23:27;;;;;;;60.40;23.10;;;;;;;0.27;100.00;97965.09;102306;1314;60837;-74
2021/12/25 03:25:56;;;;;;;79.20;28.20;;;;;;;0.27;100.00;97965.63;102391;1311;74895;-77
2021/12/25 03:28:25;;;;;;;55.00;21.90;;;;;;;0.26;100.00;97967.93;102304;1316;70196;-76
2021/12/25 03:30:52;;;;;;;21.80;13.70;;;;;;;0.24;100.00;97970.80;102360;1317;73458;-76
2021/12/25 03:33:20;;;;;;;21.30;12.40;;;;;;;0.23;100.00;97972.76;102018;1313;59718;-76
2021/12/25 03:35:48;;;;;;;13.50;9.80;;;;;;;0.24;100.00;97980.08;102313;1313;60981;-76
2021/12/25 03:38:19;;;;;;;27.80;15.40;;;;;;;0.23;100.00;97979.41;102330;1313;73698;-75
2021/12/25 03:40:48;;;;;;;18.00;12.80;;;;;;;0.23;100.00;97986.20;102336;1313;69354;-76
2021/12/25 03:43:15;;;;;;;19.70;13.80;;;;;;;0.24;100.00;97987.59;102243;1313;73271;-76
2021/12/25 03:45:43;;;;;;;26.80;17.90;;;;;;;0.24;100.00;97991.57;102289;1313;60535;-76
2021/12/25 03:48:16;;;;;;;16.40;11.40;;;;;;;0.25;100.00;97994.36;102277;1316;62263;-76
2021/12/25 03:58:59;;;;;;;11.60;9.70;;;;;;;0.23;100.00;98009.63;102293;1310;60432;-77
2021/12/25 04:01:42;;;;;;;12.80;10.10;;;;;;;0.23;100.00;98003.88;102386;1317;59707;-77
2021/12/25 04:04:17;;;;;;;13.30;10.60;;;;;;;0.22;100.00;98013.67;102318;1313;73960;-77
2021/12/25 04:07:00;;;;;;;14.40;11.70;;;;;;;0.21;100.00;98032.42;102315;1311;70638;-77
2021/12/25 04:09:29;;;;;;;8.50;7.50;;;;;;;0.12;100.00;98036.26;102356;1316;74851;-76
2021/12/25 04:12:02;;;;;;;7.30;6.70;;;;;;;-0.07;100.00;98048.88;102365;1312;60454;-77
2021/12/25 04:14:28;;;;;;;8.30;6.00;;;;;;;-0.32;100.00;98061.36;102424;1314;60950;-77
2021/12/25 04:16:55;;;;;;;6.50;5.70;;;;;;;-0.47;100.00;98074.17;102408;1313;74693;-77
2021/12/25 04:19:22;;;;;;;9.70;6.40;;;;;;;-0.60;100.00;98084.77;102153;1317;70858;-77
2021/12/25 04:22:02;;;;;;;6.30;5.70;;;;;;;-0.72;100.00;98088.34;102364;1316;73218;-77
2021/12/25 04:24:32;;;;;;;7.40;6.60;;;;;;;-0.81;100.00;98085.87;102427;1317;59836;-75
2021/12/25 04:27:00;;;;;;;5.40;4.90;;;;;;;-0.88;100.00;98085.58;102459;1313;60933;-76
2021/12/25 05:02:30;;;;;;;5.60;5.10;;;;;;;-1.71;100.00;98157.54;102874;1313;73542;-76
2021/12/25 05:05:01;;;;;;;7.60;6.80;;;;;;;-1.77;100.00;98159.43;102939;1313;60532;-78
2021/12/25 05:07:28;;;;;;;7.30;5.80;;;;;;;-1.80;100.00;98157.79;104335;1316;61033;-79
2021/12/25 05:09:57;;;;;;;7.60;6.70;;;;;;;-1.82;100.00;98156.65;105351;1316;75124;-79
2021/12/25 05:12:24;;;;;;;;;;;;;;;-1.83;100.00;98153.01;104994;1315;69364;-78
2021/12/25 05:14:51;;;;;;;8.90;6.20;;;;;;;-1.84;100.00;98162.98;104996;1313;58521;-77
2021/12/25 05:17:17;;;;;;;7.20;6.50;;;;;;;-1.87;100.00;98162.70;104368;1314;59275;-78
2021/12/25 05:19:44;;;;;;;6.30;5.70;;;;;;;-1.91;100.00;98163.17;102395;1316;60651;-78
2021/12/25 05:22:14;;;;;;;5.80;5.20;;;;;;;-1.95;100.00;98171.84;101725;1313;1003190;-77
2021/12/25 05:24:40;;;;;;;6.40;5.80;;;;;;;-2.02;100.00;98180.38;102402;1313;69235;-78
2021/12/25 05:27:07;;;;;;;7.00;5.70;;;;;;;-2.09;100.00;98180.60;102382;1314;73238;-76
2021/12/25 05:29:34;;;;;;;5.80;5.30;;;;;;;-2.13;100.00;98188.73;102329;1313;60615;-80
2021/12/25 05:32:01;;;;;;;5.90;5.30;;;;;;;-2.18;100.00;98195.66;102314;1313;60983;-76
2021/12/25 05:34:28;;;;;;;7.10;4.70;;;;;;;-2.24;100.00;98202.95;102055;1313;75432;-77
2021/12/25 05:36:55;;;;;;;5.50;4.90;;;;;;;-2.29;100.00;98200.99;102318;1313;69338;-76
2021/12/25 05:39:22;;;;;;;6.50;5.80;;;;;;;-2.33;100.00;98212.25;102292;1316;72964;-77
2021/12/25 05:41:49;;;;;;;5.60;5.10;;;;;;;-2.37;100.00;98212.36;102278;1313;60501;-75
2021/12/25 05:44:15;;;;;;;5.40;4.90;;;;;;;-2.39;100.00;98216.08;102273;1313;62135;-78
2021/12/25 05:46:42;;;;;;;4.40;3.60;;;;;;;-2.42;100.00;98214.40;102273;1313;74439;-75
2021/12/25 05:49:08;;;;;;;6.10;4.90;;;;;;;-2.45;100.00;98216.56;102261;1311;70631;-75
2021/12/25 05:51:35;;;;;;;5.70;4.50;;;;;;;-2.46;100.00;98217.83;102279;1313;60524;-75
2021/12/25 05:54:02;;;;;;;4.90;4.20;;;;;;;-2.49;100.00;98225.20;102315;1313;60483;-76
2021/12/25 05:56:28;;;;;;;5.60;4.80;;;;;;;-2.51;100.00;98231.00;101966;1319;61618;-76
2021/12/25 05:58:55;;;;;;;5.50;4.60;;;;;;;-2.54;100.00;98237.88;102305;1314;60505;-77
2021/12/25 06:01:22;;;;;;;5.50;4.90;;;;;;;-2.57;100.00;98244.73;101924;1317;66741;-77
2021/12/25 06:03:49;;;;;;;6.00;5.00;;;;;;;-2.59;100.00;98241.15;102205;1314;60476;-75
2021/12/25 06:06:15;;;;;;;5.30;4.90;;;;;;;-2.61;100.00;98243.96;102245;1313;60486;-76
2021/12/25 06:08:42;;;;;;;5.70;4.70;;;;;;;-2.62;100.00;98250.26;102297;1313;60922;-76
2021/12/25 06:11:09;;;;;;;6.60;5.00;;;;;;;-2.62;100.00;98250.61;102336;1310;74456;-74
2021/12/25 06:13:45;;;;;;;5.60;4.90;;;;;;;-2.64;100.00;98249.95;102273;1310;70259;-74
2021/12/25 06:16:12;;;;;;;5.30;4.80;;;;;;;-2.69;100.00;98244.70;102361;1310;74635;-77
2021/12/25 06:18:38;;;;;;;7.70;4.90;;;;;;;-2.71;100.00;98253.11;101924;1316;60580;-77
2021/12/25 06:21:05;;;;;;;5.20;4.50;;;;;;;-2.72;100.00;98260.75;102285;1317;61349;-77
2021/12/25 06:23:31;;;;;;;5.50;4.40;;;;;;;-2.72;100.00;98263.35;102343;1315;60524;-77
2021/12/25 06:25:58;;;;;;;6.40;4.40;;;;;;;-2.72;100.00;98263.72;102357;1313;70045;-77
2021/12/25 06:28:25;;;;;;;6.20;5.20;;;;;;;-2.75;100.00;98269.71;102325;1313;72375;-77
2021/12/25 06:30:51;;;;;;;6.60;5.70;;;;;;;-2.73;100.00;98270.68;102246;1313;60522;-77
2021/12/25 06:33:18;;;;;;;7.50;5.10;;;;;;;-2.69;100.00;98274.95;102394;1313;61932;-77
2021/12/25 06:35:44;;;;;;;6.20;4.90;;;;;;;-2.66;100.00;98281.29;102066;1313;74643;-77
2021/12/25 06:38:11;;;;;;;5.30;4.60;;;;;;;-2.64;100.00;98278.45;102401;1313;60580;-76
2021/12/25 06:40:38;;;;;;;4.90;4.50;;;;;;;-2.65;99.99;98281.45;102457;1316;74103;-77
2021/12/25 06:43:04;;;;;;;5.50;5.00;;;;;;;-2.68;100.00;98296.64;102364;1311;60558;-78
2021/12/25 06:45:32;;;;;;;5.00;3.90;;;;;;;-2.70;99.96;98305.21;102407;1313;60693;-77
2021/12/25 06:47:59;;;;;;;5.80;4.40;;;;;;;-2.73;99.39;98299.73;102409;1313;74584;-78
2021/12/25 06:50:25;;;;;;;4.60;3.60;;;;;;;-2.78;99.60;98299.50;102316;1314;69180;-77
2021/12/25 06:52:53;;;;;;;5.60;4.60;;;;;;;-2.80;99.74;98288.78;102239;1313;74496;-76
2021/12/25 06:55:20;;;;;;;6.00;4.70;;;;;;;-2.83;99.74;98294.42;101937;1316;60622;-76
2021/12/25 06:57:55;;;;;;;6.30;5.30;;;;;;;-2.86;99.95;98297.42;102284;1313;60612;-76
2021/12/25 07:00:23;;;;;;;6.80;5.30;;;;;;;-2.89;99.96;98309.33;102367;1314;74433;-77
2021/12/25 07:02:50;;;;;;;7.40;5.60;;;;;;;-2.90;100.00;98315.09;102294;1313;69310;-77
2021/12/25 07:05:17;;;;;;;7.00;5.70;;;;;;;-2.90;100.00;98315.95;102253;1316;74435;-77
2021/12/25 07:07:44;;;;;;;6.40;5.30;;;;;;;-2.92;100.00;98315.49;102262;1316;60505;-77
2021/12/25 07:10:10;;;;;;;6.50;5.60;;;;;;;-2.94;100.00;98323.70;102270;1312;60868;-77
2021/12/25 07:12:39;;;;;;;6.90;5.40;;;;;;;-2.95;100.00;98328.44;102285;1314;74643;-77
2021/12/25 07:15:06;;;;;;;8.70;7.40;;;;;;;-2.99;100.00;98335.79;102339;1313;69336;-77
2021/12/25 07:17:33;;;;;;;11.50;10.00;;;;;;;-2.99;100.00;98331.64;101916;1314;71532;-77
2021/12/25 07:20:00;;;;;;;10.10;8.60;;;;;;;-2.98;100.00;98338.39;102314;1310;60844;-77
2021/12/25 07:22:27;;;;;;;11.70;8.50;;;;;;;-2.95;100.00;98343.87;102127;1313;60910;-76
2021/12/25 07:24:53;;;;;;;12.70;8.80;;;;;;;-2.92;100.00;98341.73;102274;1313;75545;-76
2021/12/25 07:27:20;;;;;;;9.90;8.70;;;;;;;-2.85;100.00;98353.20;102275;1313;69499;-77
2021/12/25 07:29:47;;;;;;;10.90;7.70;;;;;;;-2.82;100.00;98352.95;102279;1313;73906;-77
2021/12/25 07:32:13;;;;;;;12.10;8.00;;;;;;;-2.78;100.00;98356.02;101616;1313;1003117;-77
2021/12/25 07:34:40;;;;;;;10.60;7.10;;;;;;;-2.75;100.00;98358.02;102265;1313;62076;-76
2021/12/25 07:37:07;;;;;;;9.90;7.50;;;;;;;-2.73;100.00;98359.70;102295;1313;74000;-77
2021/12/25 07:39:34;;;;;;;10.10;8.10;;;;;;;-2.71;100.00;98361.59;102298;1316;69934;-79
2021/12/25 07:42:00;;;;;;;10.90;9.00;;;;;;;-2.69;100.00;98364.81;102332;1311;74474;-77
2021/12/25 07:44:27;;;;;;;13.60;9.10;;;;;;;-2.63;100.00;98362.26;102374;1314;60621;-78
2021/12/25 07:46:54;;;;;;;13.60;9.90;;;;;;;-2.61;100.00;98363.44;102098;1318;60987;-78
2021/12/25 07:49:21;;;;;;;14.60;10.50;;;;;;;-2.61;100.00;98373.15;102311;1313;74571;-78
2021/12/25 07:51:49;;;;;;;15.60;11.20;;;;;;;-2.52;100.00;98379.02;101944;1316;68890;-79
2021/12/25 07:54:16;;;;;;;20.00;12.60;;;;;;;-2.49;100.00;98378.61;102374;1313;72572;-78
2021/12/25 07:56:43;;;;;;;15.40;11.80;;;;;;;-2.51;100.00;98381.77;102325;1313;60589;-78
2021/12/25 07:59:10;;;;;;;19.10;12.20;;;;;;;-2.48;100.00;98378.23;102123;1313;60596;-79
2021/12/25 08:01:37;;;;;;;14.90;10.60;;;;;;;-2.46;100.00;98379.91;102313;1311;74373;-78
2021/12/25 08:04:05;;;;;;;13.00;9.90;;;;;;;-2.44;100.00;98383.52;102372;1311;69502;-77
2021/12/25 08:06:32;;;;;;;16.50;11.40;;;;;;;-2.46;100.00;98385.30;102243;1313;72306;-77
2021/12/25 08:09:01;;;;;;;15.10;10.60;;;;;;;-2.44;100.00;98380.58;102296;1311;60577;-77
2021/12/25 08:11:30;;;;;;;14.40;9.60;;;;;;;-2.38;100.00;98377.29;101846;1316;60937;-78
2021/12/25 08:13:57;;;;;;;14.20;11.60;;;;;;;-2.33;100.00;98378.40;102309;1311;73383;-77
2021/12/25 08:16:24;;;;;;;14.90;10.20;;;;;;;-2.33;100.00;98382.04;102366;1313;69264;-77
2021/12/25 08:18:50;;;;;;;12.20;9.90;;;;;;;-2.27;100.00;98386.92;102311;1314;73365;-76
2021/12/25 08:21:17;;;;;;;12.60;8.50;;;;;;;-2.22;100.00;98393.94;102357;1314;60606;-78
2021/12/25 08:23:44;;;;;;;13.50;9.60;;;;;;;-2.21;99.95;98398.09;102277;1313;61282;-77
2021/12/25 08:26:10;;;;;;;14.00;8.70;;;;;;;-2.20;99.93;98404.86;102272;1313;75471;-76
2021/12/25 08:28:37;;;;;;;13.10;9.10;;;;;;;-2.23;99.61;98407.02;102368;1315;68404;-77
2021/12/25 08:31:04;;;;;;;9.40;8.40;;;;;;;-2.20;99.85;98408.15;102338;1313;74329;-77
2021/12/25 08:33:31;;;;;;;15.10;10.20;;;;;;;-2.17;99.50;98409.84;102303;1310;60545;-76
2021/12/25 08:35:57;;;;;;;10.90;9.10;;;;;;;-2.17;99.47;98410.70;102314;1313;61818;-76
2021/12/25 08:38:24;;;;;;;13.70;10.60;;;;;;;-2.16;99.30;98410.31;102235;1316;60491;-81
2021/12/25 08:40:54;;;;;;;15.60;10.60;;;;;;;-2.13;99.17;98408.33;102327;1317;69884;-79
2021/12/25 08:43:24;;;;;;;14.60;11.10;;;;;;;-2.12;98.98;98413.00;102321;1313;72849;-79
2021/12/25 08:46:10;;;;;;;16.40;11.40;;;;;;;-2.07;99.09;98414.98;102445;1313;60532;-79
2021/12/25 08:48:37;;;;;;;14.10;9.60;;;;;;;-1.97;99.01;98416.12;102349;1313;60876;-80
2021/12/25 08:51:03;;;;;;;18.30;11.20;;;;;;;-1.93;98.86;98421.77;102374;1313;75375;-80
2021/12/25 08:53:30;;;;;;;13.10;9.90;;;;;;;-1.95;98.71;98425.10;102339;1313;68220;-79
2021/12/25 08:55:58;;;;;;;19.90;12.30;;;;;;;-2.04;98.45;98429.34;102310;1311;72296;-76
2021/12/25 08:58:26;;;;;;;15.80;10.10;;;;;;;-2.08;98.50;98427.02;102378;1310;60505;-78
2021/12/25 09:00:56;;;;;;;13.80;11.10;;;;;;;-2.19;98.31;98423.45;102166;1313;178643;-77
2021/12/25 09:03:25;;;;;;;13.50;12.00;;;;;;;-2.29;98.25;98423.69;102336;1313;74552;-77
2021/12/25 09:05:57;;;;;;;14.80;10.10;;;;;;;-2.37;98.34;98421.48;102342;1313;69395;-76
2021/12/25 09:08:25;;;;;;;10.50;8.30;;;;;;;-2.42;97.86;98419.13;102342;1310;71299;-78
2021/12/25 09:10:53;;;;;;;10.90;7.10;;;;;;;-2.50;97.37;98418.09;102050;1317;60577;-77
2021/12/25 09:13:20;;;;;;;11.00;6.90;;;;;;;-2.53;97.29;98436.27;102375;1313;60877;-77
2021/12/25 09:15:47;;;;;;;9.70;7.00;;;;;;;-2.51;96.90;98439.34;102117;1319;74134;-77
2021/12/25 09:18:14;;;;;;;8.40;5.80;;;;;;;-2.49;96.70;98435.48;102326;1313;60598;-74
2021/12/25 09:20:40;;;;;;;11.10;7.00;;;;;;;-2.46;96.59;98440.10;101558;1317;1003154;-76
2021/12/25 09:23:07;;;;;;;13.20;8.00;;;;;;;-2.43;96.21;98451.33;102263;1318;60615;-76
2021/12/25 09:25:34;;;;;;;15.20;8.40;;;;;;;-2.39;96.17;98454.03;102344;1314;60548;-77
2021/12/25 09:28:01;;;;;;;10.50;7.40;;;;;;;-2.32;96.17;98455.77;102304;1313;60622;-76
2021/12/25 09:30:28;;;;;;;12.70;7.70;;;;;;;-2.22;96.18;98454.31;102382;1315;69606;-76
2021/12/25 09:32:54;;;;;;;10.30;7.60;;;;;;;-2.11;96.01;98454.59;102285;1313;74718;-76
2021/12/25 09:35:21;;;;;;;9.30;6.70;;;;;;;-2.05;95.32;98449.54;102295;1313;60514;-76
2021/12/25 09:37:48;;;;;;;9.90;6.70;;;;;;;-2.07;94.30;98449.96;102167;1314;61287;-75
2021/12/25 09:40:15;;;;;;;13.50;7.80;;;;;;;-2.11;94.21;98452.66;102367;1312;75379;-77
2021/12/25 09:42:43;;;;;;;10.90;7.80;;;;;;;-2.05;94.64;98437.20;102009;1317;69278;-76
2021/12/25 09:45:13;;;;;;;11.60;7.50;;;;;;;-1.94;94.51;98433.59;102297;1311;74567;-75
2021/12/25 09:47:41;;;;;;;12.30;7.50;;;;;;;-1.81;94.59;98436.24;102012;1314;60545;-75
2021/12/25 09:50:09;;;;;;;9.50;6.30;;;;;;;-1.73;93.55;98431.66;102434;1313;61864;-77
2021/12/25 09:52:35;;;;;;;12.70;8.20;;;;;;;-1.81;92.65;98423.70;102406;1314;75241;-76
2021/12/25 09:55:03;;;;;;;11.10;7.20;;;;;;;-1.88;93.15;98414.99;102310;1313;70001;-77
2021/12/25 09:57:30;;;;;;;9.40;6.50;;;;;;;-1.83;93.18;98413.82;102352;1317;73607;-76
2021/12/25 09:59:56;;;;;;;12.30;7.40;;;;;;;-1.78;93.07;98420.64;102069;1316;60699;-76
2021/12/25 10:02:23;;;;;;;11.50;7.90;;;;;;;-1.73;93.40;98421.94;102392;1313;60802;-77
2021/12/25 10:04:56;;;;;;;13.10;8.20;;;;;;;-1.67;93.09;98413.73;102352;1313;74406;-76
2021/12/25 10:07:27;;;;;;;11.80;8.50;;;;;;;-1.68;92.72;98409.59;102324;1313;68459;-76
2021/12/25 10:10:16;;;;;;;14.60;8.30;;;;;;;-1.68;92.84;98404.38;102424;1316;73519;-76
2021/12/25 10:12:46;;;;;;;10.70;8.00;;;;;;;-1.69;92.67;98401.26;102393;1313;60530;-78
2021/12/25 10:15:20;;;;;;;12.80;7.90;;;;;;;-1.72;92.56;98403.08;102481;1317;60921;-77
2021/12/25 10:17:50;;;;;;;11.60;8.20;;;;;;;-1.79;92.78;98407.79;101994;1316;74451;-76
2021/12/25 10:20:21;;;;;;;12.30;7.10;;;;;;;-1.80;92.69;98408.33;102668;1314;69477;-76
2021/12/25 10:23:11;;;;;;;13.20;7.30;;;;;;;-1.83;92.33;98400.95;102579;1313;74287;-77
2021/12/25 10:25:46;;;;;;;11.40;6.70;;;;;;;-1.85;92.17;98404.47;103202;1313;60553;-75
2021/12/25 10:28:16;;;;;;;10.40;6.30;;;;;;;-1.79;92.30;98408.50;103178;1313;61091;-76
2021/12/25 10:30:59;;;;;;;10.10;6.60;;;;;;;-1.73;91.60;98415.14;102808;1313;75781;-76
2021/12/25 10:33:37;;;;;;;11.10;7.70;;;;;;;-1.72;90.35;98410.41;102368;1313;70440;-76
2021/12/25 10:36:21;;;;;;;9.70;6.10;;;;;;;-1.83;89.30;98409.46;102304;1313;74334;-75
2021/12/25 10:39:06;;;;;;;9.20;6.60;;;;;;;-1.90;88.83;98407.23;102296;1313;60731;-76
2021/12/25 10:41:38;;;;;;;9.90;6.00;;;;;;;-1.92;89.30;98410.23;102404;1314;60964;-77
2021/12/25 10:44:22;;;;;;;8.30;6.70;;;;;;;-1.91;89.28;98414.74;102394;1313;75392;-77
2021/12/25 10:46:57;;;;;;;9.20;7.40;;;;;;;-1.81;89.37;98414.48;102367;1314;67346;-77
2021/12/25 10:49:35;;;;;;;7.50;6.40;;;;;;;-1.68;89.64;98415.70;102356;1314;74542;-75
2021/12/25 10:52:20;;;;;;;8.90;6.10;;;;;;;-1.58;89.21;98416.28;101954;1317;60701;-75
2021/12/25 10:54:58;;;;;;;10.00;5.30;;;;;;;-1.54;88.08;98410.79;102441;1313;60784;-75
2021/12/25 10:57:40;;;;;;;8.60;5.50;;;;;;;-1.56;88.13;98416.77;101757;1313;1002874;-77
2021/12/25 11:00:15;;;;;;;7.20;4.90;;;;;;;-1.50;88.09;98417.98;102510;1313;70512;-76
2021/12/25 11:02:43;;;;;;;7.10;4.60;;;;;;;-1.45;87.93;98408.97;102534;1313;74251;-75
2021/12/25 11:05:19;;;;;;;8.70;4.70;;;;;;;-1.40;87.39;98408.80;102526;1312;60521;-77
2021/12/25 11:08:03;;;;;;;9.00;4.80;;;;;;;-1.41;86.21;98409.55;101182;1313;1003733;-77
2021/12/25 11:10:31;;;;;;;5.40;4.40;;;;;;;-1.51;85.61;98408.95;102779;1314;73505;-76
2021/12/25 11:12:58;;;;;;;6.80;4.90;;;;;;;-1.53;86.12;98408.50;102800;1313;69030;-79
2021/12/25 11:15:32;;;;;;;7.50;5.00;;;;;;;-1.53;85.26;98410.24;102447;1319;73162;-74
2021/12/25 11:18:07;;;;;;;8.50;4.10;;;;;;;-1.56;85.74;98410.99;102856;1310;60534;-76
2021/12/25 11:20:37;;;;;;;7.30;3.90;;;;;;;-1.60;84.36;98404.68;102574;1316;61247;-76
2021/12/25 11:23:07;;;;;;;7.80;4.80;;;;;;;-1.67;84.11;98402.80;103079;1313;74496;-75
2021/12/25 11:25:36;;;;;;;6.20;4.20;;;;;;;-1.66;84.95;98401.02;102272;1313;1002813;-78
2021/12/25 11:28:07;;;;;;;6.20;4.00;;;;;;;-1.56;85.53;98400.73;103046;1313;73237;-76
2021/12/25 11:30:37;;;;;;;6.40;4.90;;;;;;;-1.48;85.42;98396.16;103830;1316;60629;-75
2021/12/25 11:33:04;;;;;;;7.50;5.00;;;;;;;-1.46;84.60;98394.88;104014;1313;61847;-76
2021/12/25 11:35:34;;;;;;;10.40;6.50;;;;;;;-1.45;85.22;98396.42;104086;1313;72695;-77
2021/12/25 11:38:04;;;;;;;8.10;5.00;;;;;;;-1.43;85.02;98391.48;103912;1319;69201;-75
2021/12/25 11:40:34;;;;;;;10.50;5.90;;;;;;;-1.48;84.76;98388.33;103009;1316;74492;-75
2021/12/25 11:43:03;;;;;;;;;;;;;;;-1.48;85.25;98399.30;102633;1314;60504;-76
2021/12/25 11:45:37;;;;;;;9.40;5.80;;;;;;;-1.48;85.74;98400.52;102431;1313;60815;-75
2021/12/25 11:48:20;;;;;;;11.50;6.70;;;;;;;-1.42;86.04;98408.19;102476;1313;72704;-76
2021/12/25 11:50:50;;;;;;;11.80;7.80;;;;;;;-1.41;85.66;98411.80;102421;1314;69629;-75
2021/12/25 11:58:49;;;;;;;12.60;7.70;;;;;;;-1.45;86.55;98418.38;102332;1311;60518;-78
2021/12/25 12:01:24;;;;;;;13.30;7.90;;;;;;;-1.45;86.66;98423.42;102420;1313;74996;-77
2021/12/25 12:03:56;;;;;;;11.60;7.60;;;;;;;-1.41;86.80;98419.66;102386;1313;70272;-78
2021/12/25 12:06:45;;;;;;;15.50;7.70;;;;;;;-1.47;86.67;98417.03;102063;1316;71688;-77
2021/12/25 12:09:16;;;;;;;11.20;7.90;;;;;;;-1.57;85.81;98414.87;102334;1313;60504;-77
2021/12/25 12:11:46;;;;;;;12.70;7.70;;;;;;;-1.71;86.29;98413.68;101937;1316;60406;-78
2021/12/25 12:14:27;;;;;;;10.80;6.50;;;;;;;-1.69;86.92;98415.20;102333;1313;75526;-77
2021/12/25 12:16:58;;;;;;;13.80;7.90;;;;;;;-1.65;86.67;98414.73;102307;1313;70016;-75
2021/12/25 12:19:31;;;;;;;11.00;7.10;;;;;;;-1.66;87.04;98414.75;102418;1316;73115;-79
2021/12/25 12:25:27;;;;;;;13.10;7.40;;;;;;;-1.79;85.81;98418.42;102256;1313;61952;-77
2021/12/25 12:27:59;;;;;;;14.70;6.20;;;;;;;-1.97;85.74;98420.46;101899;1316;74623;-77
2021/12/25 12:30:32;;;;;;;11.90;6.40;;;;;;;-2.08;85.88;98423.36;102257;1313;69599;-77
2021/12/25 12:33:20;;;;;;;14.40;8.10;;;;;;;-2.10;86.23;98426.02;102277;1313;72941;-77
2021/12/25 12:35:49;;;;;;;11.10;6.80;;;;;;;-2.12;86.37;98429.53;102280;1316;60527;-77
2021/12/25 12:38:40;;;;;;;12.40;8.10;;;;;;;-2.10;86.91;98436.45;102326;1313;61089;-77
2021/12/25 12:41:35;;;;;;;11.50;6.60;;;;;;;-2.06;86.53;98442.26;101965;1316;74502;-77
2021/12/25 12:44:16;;;;;;;15.10;7.00;;;;;;;-2.16;85.60;98440.95;102277;1313;69559;-77
2021/12/25 12:47:22;;;;;;;13.20;6.90;;;;;;;-2.27;85.84;98440.86;102343;1314;74346;-77
2021/12/25 12:49:48;;;;;;;13.20;6.70;;;;;;;-2.35;86.18;98443.85;102353;1314;60532;-77
2021/12/25 12:52:24;;;;;;;9.70;5.70;;;;;;;-2.37;86.39;98449.65;102336;1313;60615;-77